AirNav   TITAN Aviation Fuels
 
 913 users online  

09FD Cheryl-Lane Landings Airport
Bushnell, Florida, USA

GOING TO BUSHNELL?


FAA INFORMATION EFFECTIVE 22 APRIL 2021

Location

FAA Identifier: 09FD
Lat/Long: 28-40-15.9730N 082-05-14.3040W
28-40.266217N 082-05.238400W
28.6711036,-82.0873067
(estimated)
Elevation: 71 ft. / 22 m (estimated)
Variation: 03W (1990)
From city: 1 mile E of BUSHNELL, FL
Time zone: UTC -4 (UTC -5 during Standard Time)
Zip code: 33513

Airport Operations

Airport use: Private use. Permission required prior to landing
Activation date: 06/1992
Control tower: no
ARTCC: JACKSONVILLE CENTER
FSS: SAINT PETERSBURG FLIGHT SERVICE STATION
Attendance: IREG
Wind indicator: yes
Segmented circle: no

Airport Communications

WX AWOS-3 at INF (15 nm NW): 119.975 (352-560-6012)
WX ASOS at LEE (17 nm NE): 134.325 (352-787-1565)

Nearby radio navigation aids

VOR radial/distance  VOR name  Freq  Var
OCFr166/31.2OCALA VORTAC113.7000E

Airport Services

Runway Information

Runway 18/36

Dimensions: 2649 x 100 ft. / 807 x 30 m
Surface: turf
RUNWAY 18  RUNWAY 36
Traffic pattern: leftleft

Airport Ownership and Management from official FAA records

Ownership: Privately-owned
Owner: J. LANE & CHERYL PURCELL
PO BOX 1233
BUSHNELL, FL 33513
Phone (352) 303-8271
Manager: CHERYL PURCELL
PO BOX 1233
BUSHNELL, FL 33513
Phone (352) 303-8271
ADDITIONAL CONTACT: LESTER COGGINS - 352-267-5043

Airport Operational Statistics

Aircraft based on the field: 2
Single engine airplanes: 2
    

Additional Remarks

FOR CD CTC JACKSONVILLE APCH AT 904-741-0284.

Instrument Procedures

There are no published instrument procedures at 09FD.

Some nearby airports with instrument procedures:

KINF - Inverness Airport (15 nm NW)
KLEE - Leesburg International Airport (17 nm NE)
KBKV - Brooksville-Tampa Bay Regional Airport (23 nm SW)
X04 - Orlando Apopka Airport (27 nm E)
KZPH - Zephyrhills Municipal Airport (27 nm S)
 
Loc | Ops | Rwys | IFR | FBO | Links
Com | Nav | Svcs | Stats | Notes


 
Area around 09FD (Cheryl-Lane Landings Airport)
 
Road maps at: MapQuest Bing Google
 
Aerial photo
WARNING: Photo may not be current or correct
Aerial photo of 09FD (Cheryl-Lane Landings Airport)
Do you have a better or more recent aerial photo of Cheryl-Lane Landings Airport that you would like to share? If so, please send us your photo.

 
Sectional chart

 
Airport distance calculator
Flying to Cheryl-Lane Landings Airport? Find the distance to fly.

From to 09FD

Sunrise and sunset
Times for 17-May-2021
 Local
(UTC-4)
 Zulu
(UTC)
Morning civil twilight06:1110:11
Sunrise06:3710:37
Sunset20:1200:12
Evening civil twilight20:3800:38

Current date and time
Zulu (UTC)  18-May-2021 03:06:51
Local (UTC-4)  17-May-2021 23:06:51
 
METAR
KINF 
15nm NW 
180255Z AUTO 08003KT 10SM CLR 22/17 A3016 RMK AO2
KLEE 
17nm NE 
180253Z AUTO 07006KT 10SM CLR 22/16 A3018 RMK AO2 SLP218 T02220161 53016
KBKV 
23nm SW 
180253Z AUTO 09006KT 10SM CLR 22/14 A3016 RMK AO2 SLP209 T02220144 51021
KZPH 
27nm S 
180235Z AUTO 07005KT 10SM CLR 22/14 A3016 RMK A02 T02160143
KCGC 
28nm NW 
180255Z AUTO 08004KT 10SM CLR 22/16 A3016 RMK AO2
TAF
KLEE 
17nm NE 
171742Z 1718/1818 07010KT P6SM SCT050 FM172000 10013G20KT P6SM SCT060 SCT250 FM180200 08006KT P6SM FEW060 BKN250 FM181600 10014G20KT P6SM SCT045 BKN250
NOTAMs
Click for the latest NOTAMs
NOTAMs are issued by the DoD/FAA and will open in a separate window not controlled by AirNav.

 

 
 

Would you like to see your business listed on this page?

 If your business provides an interesting product or service to pilots, flight crews, aircraft, or users of the Cheryl-Lane Landings Airport, you should consider listing it here.  To start the listing process, click on the button below
 
Add a business
 

Other Pages about Cheryl-Lane Landings Airport

Update a link
 
Copyright © AirNav, LLC. All rights reserved. Privacy Policy  Contact